Pharr, Texas
Current Conditions -  °F | °C
As of 5:53 PM on Saturday 25 Oct 2014 (Local Time) from KMFE Reporting Station
Scattered Clouds Scattered Clouds  
Wind Chill: 86°   Ceiling: Unl
Heat Index: 86°   Visibility: 10mi
Dew Point: 62°   Wind: 8mph
Humidity: 44%   Direction: 120°ESE
Pressure: 30.07"   Gusts: NA
Location:  26.19°N, 98.18°W
Report Text: KMFE 252253Z AUTO 12007KT 080V140 10SM SCT060 30/17 A3007 RMK AO2 SLP179 T03000167 TSNO
Loading
Personal Weather Stations






























Interactive Weather Map
Tropical Storm Tracking
New forecast layout! Learn more

10-Day Weather Forecast

Advertisements
Track Severe Weather on mobile